Bom Jardim, Brazil
Current Conditions -  °F | °C
As of 7:00 PM on Wednesday 26 Nov 2014 (Local Time) from SBME Reporting Station
Broken Clouds Broken Clouds  
Wind Chill: 84°   Ceiling: 8000
Heat Index: 90°   Visibility: 6mi
Dew Point: 72°   Wind: 15mph
Humidity: 66%   Direction: 40°NE
Pressure: 29.74"   Gusts: NA
Location:  22.15°S, 42.42°W
Report Text: SBME 262100Z 04013KT 9999 SCT020 BKN080 29/22 Q1007
Loading
Personal Weather Stations






























Interactive Weather Map New forecast layout! Learn more

10-Day Weather Forecast

Advertisements
Track Severe Weather on mobile